sensor_id;sensor_type;location;lat;lon;timestamp;temperature;humidity
11132;DHT22;5620;53.570;9.718;2023-04-03T00:01:00;1.20;94.10
11132;DHT22;5620;53.570;9.718;2023-04-03T00:03:27;1.20;94.20
11132;DHT22;5620;53.570;9.718;2023-04-03T00:05:53;1.20;94.40
11132;DHT22;5620;53.570;9.718;2023-04-03T00:08:19;1.10;94.20
11132;DHT22;5620;53.570;9.718;2023-04-03T00:10:49;1.10;94.50
11132;DHT22;5620;53.570;9.718;2023-04-03T00:13:17;1.10;94.70
11132;DHT22;5620;53.570;9.718;2023-04-03T00:15:43;1.10;94.70
11132;DHT22;5620;53.570;9.718;2023-04-03T00:18:09;1.00;95.30
11132;DHT22;5620;53.570;9.718;2023-04-03T00:20:35;1.00;95.30
11132;DHT22;5620;53.570;9.718;2023-04-03T00:23:01;1.00;95.30
11132;DHT22;5620;53.570;9.718;2023-04-03T00:25:28;1.00;95.80
11132;DHT22;5620;53.570;9.718;2023-04-03T00:27:53;1.00;95.90
11132;DHT22;5620;53.570;9.718;2023-04-03T00:30:20;0.90;96.00
11132;DHT22;5620;53.570;9.718;2023-04-03T00:32:50;0.90;96.00
11132;DHT22;5620;53.570;9.718;2023-04-03T00:35:17;0.90;96.40
11132;DHT22;5620;53.570;9.718;2023-04-03T00:37:44;0.90;96.60
11132;DHT22;5620;53.570;9.718;2023-04-03T00:40:10;0.90;96.60
11132;DHT22;5620;53.570;9.718;2023-04-03T00:42:41;0.90;97.10
11132;DHT22;5620;53.570;9.718;2023-04-03T00:45:37;0.90;97.30
11132;DHT22;5620;53.570;9.718;2023-04-03T00:48:05;0.80;97.50
11132;DHT22;5620;53.570;9.718;2023-04-03T00:50:35;0.80;97.70
11132;DHT22;5620;53.570;9.718;2023-04-03T00:53:03;0.80;98.20
11132;DHT22;5620;53.570;9.718;2023-04-03T00:55:30;0.80;98.50
11132;DHT22;5620;53.570;9.718;2023-04-03T00:58:03;0.80;98.80
11132;DHT22;5620;53.570;9.718;2023-04-03T01:00:31;0.70;99.20
11132;DHT22;5620;53.570;9.718;2023-04-03T01:02:58;0.70;99.20
11132;DHT22;5620;53.570;9.718;2023-04-03T01:05:25;0.70;99.70
11132;DHT22;5620;53.570;9.718;2023-04-03T01:07:55;0.70;99.90
11132;DHT22;5620;53.570;9.718;2023-04-03T01:10:22;0.70;99.90
11132;DHT22;5620;53.570;9.718;2023-04-03T01:12:49;0.70;99.90
11132;DHT22;5620;53.570;9.718;2023-04-03T01:15:22;0.70;99.90
11132;DHT22;5620;53.570;9.718;2023-04-03T01:17:55;0.70;99.90
11132;DHT22;5620;53.570;9.718;2023-04-03T01:23:11;0.70;99.90
11132;DHT22;5620;53.570;9.718;2023-04-03T01:25:50;0.70;99.90
11132;DHT22;5620;53.570;9.718;2023-04-03T01:28:29;0.70;99.90
11132;DHT22;5620;53.570;9.718;2023-04-03T01:31:21;0.60;99.90
11132;DHT22;5620;53.570;9.718;2023-04-03T01:33:48;0.60;99.90
11132;DHT22;5620;53.570;9.718;2023-04-03T01:36:20;0.60;99.90
11132;DHT22;5620;53.570;9.718;2023-04-03T01:38:47;0.60;99.90
11132;DHT22;5620;53.570;9.718;2023-04-03T01:41:13;0.60;99.90
11132;DHT22;5620;53.570;9.718;2023-04-03T01:43:40;0.60;99.90
11132;DHT22;5620;53.570;9.718;2023-04-03T01:46:06;0.60;99.90
11132;DHT22;5620;53.570;9.718;2023-04-03T01:48:32;0.60;99.90
11132;DHT22;5620;53.570;9.718;2023-04-03T01:51:01;0.60;99.90
11132;DHT22;5620;53.570;9.718;2023-04-03T01:53:27;0.60;99.90
11132;DHT22;5620;53.570;9.718;2023-04-03T01:55:57;0.50;99.90
11132;DHT22;5620;53.570;9.718;2023-04-03T01:58:27;0.60;99.90
11132;DHT22;5620;53.570;9.718;2023-04-03T02:00:54;0.50;99.90
11132;DHT22;5620;53.570;9.718;2023-04-03T02:03:20;0.50;99.90
11132;DHT22;5620;53.570;9.718;2023-04-03T02:05:47;0.50;99.90
11132;DHT22;5620;53.570;9.718;2023-04-03T02:08:13;0.50;99.90
11132;DHT22;5620;53.570;9.718;2023-04-03T02:10:39;0.50;99.90
11132;DHT22;5620;53.570;9.718;2023-04-03T02:13:05;0.40;99.90
11132;DHT22;5620;53.570;9.718;2023-04-03T02:15:31;0.50;99.90
11132;DHT22;5620;53.570;9.718;2023-04-03T02:17:58;0.50;99.90
11132;DHT22;5620;53.570;9.718;2023-04-03T02:20:27;0.50;99.90
11132;DHT22;5620;53.570;9.718;2023-04-03T02:22:54;0.40;99.90
11132;DHT22;5620;53.570;9.718;2023-04-03T02:25:20;0.40;99.90
11132;DHT22;5620;53.570;9.718;2023-04-03T02:27:47;0.40;99.90
11132;DHT22;5620;53.570;9.718;2023-04-03T02:30:14;0.40;99.90
11132;DHT22;5620;53.570;9.718;2023-04-03T02:32:43;0.40;99.90
11132;DHT22;5620;53.570;9.718;2023-04-03T02:35:10;0.40;99.90
11132;DHT22;5620;53.570;9.718;2023-04-03T02:37:36;0.40;99.90
11132;DHT22;5620;53.570;9.718;2023-04-03T02:40:02;0.40;99.90
11132;DHT22;5620;53.570;9.718;2023-04-03T02:42:27;0.40;99.90
11132;DHT22;5620;53.570;9.718;2023-04-03T02:44:53;0.40;99.90
11132;DHT22;5620;53.570;9.718;2023-04-03T02:47:21;0.40;99.90
11132;DHT22;5620;53.570;9.718;2023-04-03T02:49:48;0.30;99.90
11132;DHT22;5620;53.570;9.718;2023-04-03T02:52:14;0.30;99.90
11132;DHT22;5620;53.570;9.718;2023-04-03T02:54:41;0.30;99.90
11132;DHT22;5620;53.570;9.718;2023-04-03T02:57:07;0.30;99.90
11132;DHT22;5620;53.570;9.718;2023-04-03T02:59:32;0.30;99.90
11132;DHT22;5620;53.570;9.718;2023-04-03T03:01:59;0.20;99.90
11132;DHT22;5620;53.570;9.718;2023-04-03T03:04:25;0.30;99.90
11132;DHT22;5620;53.570;9.718;2023-04-03T03:06:51;0.30;99.90
11132;DHT22;5620;53.570;9.718;2023-04-03T03:09:16;0.20;99.90
11132;DHT22;5620;53.570;9.718;2023-04-03T03:11:43;0.20;99.90
11132;DHT22;5620;53.570;9.718;2023-04-03T03:14:09;0.20;99.90
11132;DHT22;5620;53.570;9.718;2023-04-03T03:16:36;0.20;99.90
11132;DHT22;5620;53.570;9.718;2023-04-03T03:19:03;0.20;99.90
11132;DHT22;5620;53.570;9.718;2023-04-03T03:21:29;0.20;99.90
11132;DHT22;5620;53.570;9.718;2023-04-03T03:23:57;0.20;99.90
11132;DHT22;5620;53.570;9.718;2023-04-03T03:26:27;0.20;99.90
11132;DHT22;5620;53.570;9.718;2023-04-03T03:28:54;0.20;99.90
11132;DHT22;5620;53.570;9.718;2023-04-03T03:31:20;0.20;99.90
11132;DHT22;5620;53.570;9.718;2023-04-03T03:33:47;0.20;99.90
11132;DHT22;5620;53.570;9.718;2023-04-03T03:36:14;0.20;99.90
11132;DHT22;5620;53.570;9.718;2023-04-03T03:38:40;0.10;99.90
11132;DHT22;5620;53.570;9.718;2023-04-03T03:41:05;0.10;99.90
11132;DHT22;5620;53.570;9.718;2023-04-03T03:43:31;0.20;99.90
11132;DHT22;5620;53.570;9.718;2023-04-03T03:45:57;0.20;99.90
11132;DHT22;5620;53.570;9.718;2023-04-03T03:48:25;0.20;99.90
11132;DHT22;5620;53.570;9.718;2023-04-03T03:50:51;0.10;99.90
11132;DHT22;5620;53.570;9.718;2023-04-03T03:53:17;0.10;99.90
11132;DHT22;5620;53.570;9.718;2023-04-03T03:55:43;0.10;99.90
11132;DHT22;5620;53.570;9.718;2023-04-03T03:58:10;0.10;99.90
11132;DHT22;5620;53.570;9.718;2023-04-03T04:00:36;0.10;99.90
11132;DHT22;5620;53.570;9.718;2023-04-03T04:03:02;0.10;99.90
11132;DHT22;5620;53.570;9.718;2023-04-03T04:05:29;0.00;99.90
11132;DHT22;5620;53.570;9.718;2023-04-03T04:07:56;0.10;99.90
11132;DHT22;5620;53.570;9.718;2023-04-03T04:10:23;0.00;99.90
11132;DHT22;5620;53.570;9.718;2023-04-03T04:12:50;0.10;99.90
11132;DHT22;5620;53.570;9.718;2023-04-03T04:15:15;0.00;99.90
11132;DHT22;5620;53.570;9.718;2023-04-03T04:17:42;0.00;99.90
11132;DHT22;5620;53.570;9.718;2023-04-03T04:20:08;0.00;99.90
11132;DHT22;5620;53.570;9.718;2023-04-03T04:22:35;0.00;99.90
11132;DHT22;5620;53.570;9.718;2023-04-03T04:25:02;0.00;99.90
11132;DHT22;5620;53.570;9.718;2023-04-03T04:27:28;0.00;1.00
11132;DHT22;5620;53.570;9.718;2023-04-03T04:29:53;0.00;1.00
11132;DHT22;5620;53.570;9.718;2023-04-03T04:32:20;0.00;1.00
11132;DHT22;5620;53.570;9.718;2023-04-03T04:34:46;0.00;1.00
11132;DHT22;5620;53.570;9.718;2023-04-03T04:37:14;0.00;1.00
11132;DHT22;5620;53.570;9.718;2023-04-03T04:39:41;0.00;1.00
11132;DHT22;5620;53.570;9.718;2023-04-03T04:42:08;0.00;1.00
11132;DHT22;5620;53.570;9.718;2023-04-03T04:44:34;0.10;1.00
11132;DHT22;5620;53.570;9.718;2023-04-03T04:47:00;0.00;1.00
11132;DHT22;5620;53.570;9.718;2023-04-03T04:49:25;0.10;1.00
11132;DHT22;5620;53.570;9.718;2023-04-03T04:51:52;0.00;1.00
11132;DHT22;5620;53.570;9.718;2023-04-03T04:54:19;0.00;1.00
11132;DHT22;5620;53.570;9.718;2023-04-03T04:56:46;0.00;1.00
11132;DHT22;5620;53.570;9.718;2023-04-03T04:59:16;0.10;1.00
11132;DHT22;5620;53.570;9.718;2023-04-03T05:01:43;0.10;1.00
11132;DHT22;5620;53.570;9.718;2023-04-03T05:04:09;0.10;1.00
11132;DHT22;5620;53.570;9.718;2023-04-03T05:06:36;0.10;1.00
11132;DHT22;5620;53.570;9.718;2023-04-03T05:09:02;0.10;1.00
11132;DHT22;5620;53.570;9.718;2023-04-03T05:11:27;0.20;1.00
11132;DHT22;5620;53.570;9.718;2023-04-03T05:13:53;0.20;1.00
11132;DHT22;5620;53.570;9.718;2023-04-03T05:16:18;0.30;1.00
11132;DHT22;5620;53.570;9.718;2023-04-03T05:18:44;0.30;1.00
11132;DHT22;5620;53.570;9.718;2023-04-03T05:21:09;0.30;1.00
11132;DHT22;5620;53.570;9.718;2023-04-03T05:23:35;0.30;1.00
11132;DHT22;5620;53.570;9.718;2023-04-03T05:26:01;0.40;1.00
11132;DHT22;5620;53.570;9.718;2023-04-03T05:28:27;0.40;1.00
11132;DHT22;5620;53.570;9.718;2023-04-03T05:30:55;0.50;1.00
11132;DHT22;5620;53.570;9.718;2023-04-03T05:33:23;0.50;1.00
11132;DHT22;5620;53.570;9.718;2023-04-03T05:35:52;0.60;1.00
11132;DHT22;5620;53.570;9.718;2023-04-03T05:38:18;0.70;1.00
11132;DHT22;5620;53.570;9.718;2023-04-03T05:40:46;0.80;1.00
11132;DHT22;5620;53.570;9.718;2023-04-03T05:43:12;0.90;1.00
11132;DHT22;5620;53.570;9.718;2023-04-03T05:45:39;1.00;1.00
11132;DHT22;5620;53.570;9.718;2023-04-03T05:48:07;1.10;1.00
11132;DHT22;5620;53.570;9.718;2023-04-03T05:50:33;1.20;1.00
11132;DHT22;5620;53.570;9.718;2023-04-03T05:53:06;1.40;1.00
11132;DHT22;5620;53.570;9.718;2023-04-03T05:55:35;1.70;1.00
11132;DHT22;5620;53.570;9.718;2023-04-03T05:58:02;1.80;1.00
11132;DHT22;5620;53.570;9.718;2023-04-03T06:00:29;1.90;1.00
11132;DHT22;5620;53.570;9.718;2023-04-03T06:02:56;2.00;1.00
11132;DHT22;5620;53.570;9.718;2023-04-03T06:05:23;2.00;1.00
11132;DHT22;5620;53.570;9.718;2023-04-03T06:07:50;2.10;1.00
11132;DHT22;5620;53.570;9.718;2023-04-03T06:10:16;2.30;1.00
11132;DHT22;5620;53.570;9.718;2023-04-03T06:12:43;2.40;1.00
11132;DHT22;5620;53.570;9.718;2023-04-03T06:15:11;2.50;1.00
11132;DHT22;5620;53.570;9.718;2023-04-03T06:17:39;2.60;1.00
11132;DHT22;5620;53.570;9.718;2023-04-03T06:20:06;2.80;1.00
11132;DHT22;5620;53.570;9.718;2023-04-03T06:22:32;2.90;1.00
11132;DHT22;5620;53.570;9.718;2023-04-03T06:24:59;3.00;1.00
11132;DHT22;5620;53.570;9.718;2023-04-03T06:27:24;3.10;1.00
11132;DHT22;5620;53.570;9.718;2023-04-03T06:29:51;3.20;1.00
11132;DHT22;5620;53.570;9.718;2023-04-03T06:32:16;3.30;1.00
11132;DHT22;5620;53.570;9.718;2023-04-03T06:34:44;3.30;1.00
11132;DHT22;5620;53.570;9.718;2023-04-03T06:37:17;3.60;1.00
11132;DHT22;5620;53.570;9.718;2023-04-03T06:39:44;3.70;1.00
11132;DHT22;5620;53.570;9.718;2023-04-03T06:42:12;3.90;1.00
11132;DHT22;5620;53.570;9.718;2023-04-03T06:44:38;4.00;1.00
11132;DHT22;5620;53.570;9.718;2023-04-03T06:47:06;4.10;1.00
11132;DHT22;5620;53.570;9.718;2023-04-03T06:49:31;4.30;1.00
11132;DHT22;5620;53.570;9.718;2023-04-03T06:51:57;4.40;1.00
11132;DHT22;5620;53.570;9.718;2023-04-03T06:54:24;4.40;1.00
11132;DHT22;5620;53.570;9.718;2023-04-03T06:56:50;4.60;1.00
11132;DHT22;5620;53.570;9.718;2023-04-03T06:59:17;4.70;1.00
11132;DHT22;5620;53.570;9.718;2023-04-03T07:01:43;4.70;1.00
11132;DHT22;5620;53.570;9.718;2023-04-03T07:04:09;4.80;1.00
11132;DHT22;5620;53.570;9.718;2023-04-03T07:06:35;4.90;1.00
11132;DHT22;5620;53.570;9.718;2023-04-03T07:09:02;5.00;1.00
11132;DHT22;5620;53.570;9.718;2023-04-03T07:11:29;5.00;1.00
11132;DHT22;5620;53.570;9.718;2023-04-03T07:13:58;5.10;1.00
11132;DHT22;5620;53.570;9.718;2023-04-03T07:16:25;5.20;1.00
11132;DHT22;5620;53.570;9.718;2023-04-03T07:18:51;5.30;1.00
11132;DHT22;5620;53.570;9.718;2023-04-03T07:21:16;5.40;1.00
11132;DHT22;5620;53.570;9.718;2023-04-03T07:23:46;5.50;1.00
11132;DHT22;5620;53.570;9.718;2023-04-03T07:26:12;5.60;1.00
11132;DHT22;5620;53.570;9.718;2023-04-03T07:28:39;5.70;1.00
11132;DHT22;5620;53.570;9.718;2023-04-03T07:31:16;5.90;1.00
11132;DHT22;5620;53.570;9.718;2023-04-03T07:33:44;6.00;1.00
11132;DHT22;5620;53.570;9.718;2023-04-03T07:36:18;6.10;1.00
11132;DHT22;5620;53.570;9.718;2023-04-03T07:38:44;6.10;1.00
11132;DHT22;5620;53.570;9.718;2023-04-03T07:41:15;6.10;1.00
11132;DHT22;5620;53.570;9.718;2023-04-03T07:43:42;6.20;1.00
11132;DHT22;5620;53.570;9.718;2023-04-03T07:46:07;6.30;1.00
11132;DHT22;5620;53.570;9.718;2023-04-03T07:48:35;6.40;1.00
11132;DHT22;5620;53.570;9.718;2023-04-03T07:51:01;6.40;1.00
11132;DHT22;5620;53.570;9.718;2023-04-03T07:53:28;6.50;99.90
11132;DHT22;5620;53.570;9.718;2023-04-03T07:55:56;6.50;99.90
11132;DHT22;5620;53.570;9.718;2023-04-03T07:58:22;6.70;99.90
11132;DHT22;5620;53.570;9.718;2023-04-03T08:00:49;6.70;99.90
11132;DHT22;5620;53.570;9.718;2023-04-03T08:03:16;6.70;99.90
11132;DHT22;5620;53.570;9.718;2023-04-03T08:05:44;6.70;99.90
11132;DHT22;5620;53.570;9.718;2023-04-03T08:08:12;6.80;99.90
11132;DHT22;5620;53.570;9.718;2023-04-03T08:10:40;6.80;99.90
11132;DHT22;5620;53.570;9.718;2023-04-03T08:13:06;6.90;99.90
11132;DHT22;5620;53.570;9.718;2023-04-03T08:15:32;7.00;99.90
11132;DHT22;5620;53.570;9.718;2023-04-03T08:18:03;7.10;99.90
11132;DHT22;5620;53.570;9.718;2023-04-03T08:20:29;7.20;99.90
11132;DHT22;5620;53.570;9.718;2023-04-03T08:22:55;7.30;99.90
11132;DHT22;5620;53.570;9.718;2023-04-03T08:25:22;7.30;99.90
11132;DHT22;5620;53.570;9.718;2023-04-03T08:27:48;7.30;99.90
11132;DHT22;5620;53.570;9.718;2023-04-03T08:30:19;7.40;99.90
11132;DHT22;5620;53.570;9.718;2023-04-03T08:32:47;7.50;99.90
11132;DHT22;5620;53.570;9.718;2023-04-03T08:35:14;7.50;99.90
11132;DHT22;5620;53.570;9.718;2023-04-03T08:37:40;7.60;99.90
11132;DHT22;5620;53.570;9.718;2023-04-03T08:40:10;7.60;99.90
11132;DHT22;5620;53.570;9.718;2023-04-03T08:48:33;7.80;99.90
11132;DHT22;5620;53.570;9.718;2023-04-03T08:51:10;7.90;99.90
11132;DHT22;5620;53.570;9.718;2023-04-03T08:53:44;7.90;99.90
11132;DHT22;5620;53.570;9.718;2023-04-03T08:56:13;8.10;99.90
11132;DHT22;5620;53.570;9.718;2023-04-03T08:58:59;8.10;99.90
11132;DHT22;5620;53.570;9.718;2023-04-03T09:01:38;8.10;99.90
11132;DHT22;5620;53.570;9.718;2023-04-03T09:04:12;8.20;99.90
11132;DHT22;5620;53.570;9.718;2023-04-03T09:06:52;8.20;99.90
11132;DHT22;5620;53.570;9.718;2023-04-03T09:09:32;8.00;99.90
11132;DHT22;5620;53.570;9.718;2023-04-03T09:23:33;8.40;99.90
11132;DHT22;5620;53.570;9.718;2023-04-03T09:26:06;8.50;99.90
11132;DHT22;5620;53.570;9.718;2023-04-03T09:28:39;8.50;99.90
11132;DHT22;5620;53.570;9.718;2023-04-03T09:31:38;8.70;99.90
11132;DHT22;5620;53.570;9.718;2023-04-03T09:34:35;8.80;99.90
11132;DHT22;5620;53.570;9.718;2023-04-03T09:37:03;9.00;99.90
11132;DHT22;5620;53.570;9.718;2023-04-03T09:39:30;9.10;99.90
11132;DHT22;5620;53.570;9.718;2023-04-03T09:41:59;9.30;99.90
11132;DHT22;5620;53.570;9.718;2023-04-03T09:44:34;9.60;99.90
11132;DHT22;5620;53.570;9.718;2023-04-03T09:47:25;9.80;99.90
11132;DHT22;5620;53.570;9.718;2023-04-03T09:52:54;9.90;99.90
11132;DHT22;5620;53.570;9.718;2023-04-03T09:55:28;10.20;99.90
11132;DHT22;5620;53.570;9.718;2023-04-03T09:58:04;10.50;99.90
11132;DHT22;5620;53.570;9.718;2023-04-03T10:00:39;10.70;99.90
11132;DHT22;5620;53.570;9.718;2023-04-03T10:03:34;10.60;99.90
11132;DHT22;5620;53.570;9.718;2023-04-03T10:06:03;10.60;99.90
11132;DHT22;5620;53.570;9.718;2023-04-03T10:08:32;10.60;99.90
11132;DHT22;5620;53.570;9.718;2023-04-03T10:11:17;10.40;99.90
11132;DHT22;5620;53.570;9.718;2023-04-03T10:13:52;10.80;99.90
11132;DHT22;5620;53.570;9.718;2023-04-03T10:25:29;12.30;98.50
11132;DHT22;5620;53.570;9.718;2023-04-03T10:42:13;12.50;89.60
11132;DHT22;5620;53.570;9.718;2023-04-03T10:45:03;12.80;87.80
11132;DHT22;5620;53.570;9.718;2023-04-03T10:53:37;14.50;73.40
11132;DHT22;5620;53.570;9.718;2023-04-03T10:59:25;15.90;59.90
11132;DHT22;5620;53.570;9.718;2023-04-03T11:02:42;16.90;44.00
11132;DHT22;5620;53.570;9.718;2023-04-03T11:08:11;19.90;21.00
11132;DHT22;5620;53.570;9.718;2023-04-03T11:10:44;21.70;1.00
11132;DHT22;5620;53.570;9.718;2023-04-03T11:16:00;25.40;1.00
11132;DHT22;5620;53.570;9.718;2023-04-03T11:18:39;25.10;1.00
11132;DHT22;5620;53.570;9.718;2023-04-03T11:21:42;23.00;1.00
11132;DHT22;5620;53.570;9.718;2023-04-03T11:24:27;20.00;1.00
11132;DHT22;5620;53.570;9.718;2023-04-03T11:26:56;17.80;1.00
11132;DHT22;5620;53.570;9.718;2023-04-03T11:29:37;16.20;1.00
11132;DHT22;5620;53.570;9.718;2023-04-03T11:32:29;15.10;9.40
11132;DHT22;5620;53.570;9.718;2023-04-03T11:35:02;15.70;10.10
11132;DHT22;5620;53.570;9.718;2023-04-03T11:40:48;22.50;1.00
11132;DHT22;5620;53.570;9.718;2023-04-03T11:43:28;26.10;1.00
11132;DHT22;5620;53.570;9.718;2023-04-03T11:46:05;28.50;1.00
11132;DHT22;5620;53.570;9.718;2023-04-03T11:53:49;33.80;1.00
11132;DHT22;5620;53.570;9.718;2023-04-03T11:56:34;34.60;1.00
11132;DHT22;5620;53.570;9.718;2023-04-03T11:59:22;35.50;1.00
11132;DHT22;5620;53.570;9.718;2023-04-03T12:01:49;36.20;1.00
11132;DHT22;5620;53.570;9.718;2023-04-03T12:04:20;36.60;1.00
11132;DHT22;5620;53.570;9.718;2023-04-03T12:12:30;35.70;1.00
11132;DHT22;5620;53.570;9.718;2023-04-03T12:15:54;35.70;1.00
11132;DHT22;5620;53.570;9.718;2023-04-03T12:21:05;34.40;1.00
11132;DHT22;5620;53.570;9.718;2023-04-03T12:23:35;35.30;1.00
11132;DHT22;5620;53.570;9.718;2023-04-03T12:26:26;36.10;1.00
11132;DHT22;5620;53.570;9.718;2023-04-03T12:28:53;36.90;1.00
11132;DHT22;5620;53.570;9.718;2023-04-03T12:31:20;37.70;1.00
11132;DHT22;5620;53.570;9.718;2023-04-03T12:34:04;36.20;1.00
11132;DHT22;5620;53.570;9.718;2023-04-03T12:39:42;36.30;1.00
11132;DHT22;5620;53.570;9.718;2023-04-03T12:45:24;38.00;1.00
11132;DHT22;5620;53.570;9.718;2023-04-03T12:47:55;39.10;1.00
11132;DHT22;5620;53.570;9.718;2023-04-03T12:50:30;39.50;1.00
11132;DHT22;5620;53.570;9.718;2023-04-03T12:56:31;40.00;1.00
11132;DHT22;5620;53.570;9.718;2023-04-03T13:01:52;40.20;1.00
11132;DHT22;5620;53.570;9.718;2023-04-03T13:48:47;34.40;1.00
11132;DHT22;5620;53.570;9.718;2023-04-03T13:51:24;35.50;1.00
11132;DHT22;5620;53.570;9.718;2023-04-03T13:53:57;36.00;1.00
11132;DHT22;5620;53.570;9.718;2023-04-03T13:56:38;36.80;1.00
11132;DHT22;5620;53.570;9.718;2023-04-03T14:05:07;36.40;1.00
11132;DHT22;5620;53.570;9.718;2023-04-03T14:07:33;32.30;1.00
11132;DHT22;5620;53.570;9.718;2023-04-03T14:09:59;30.20;1.00
11132;DHT22;5620;53.570;9.718;2023-04-03T14:12:31;29.00;1.00
11132;DHT22;5620;53.570;9.718;2023-04-03T14:15:04;27.70;1.00
11132;DHT22;5620;53.570;9.718;2023-04-03T14:17:35;29.00;1.00
11132;DHT22;5620;53.570;9.718;2023-04-03T14:20:03;31.40;1.00
11132;DHT22;5620;53.570;9.718;2023-04-03T14:22:32;33.00;1.00
11132;DHT22;5620;53.570;9.718;2023-04-03T14:25:00;34.00;1.00
11132;DHT22;5620;53.570;9.718;2023-04-03T14:27:45;35.10;1.00
11132;DHT22;5620;53.570;9.718;2023-04-03T14:32:45;36.00;1.00
11132;DHT22;5620;53.570;9.718;2023-04-03T14:35:10;34.20;1.00
11132;DHT22;5620;53.570;9.718;2023-04-03T14:37:36;34.10;1.00
11132;DHT22;5620;53.570;9.718;2023-04-03T14:40:06;34.90;1.00
11132;DHT22;5620;53.570;9.718;2023-04-03T14:42:38;35.70;1.00
11132;DHT22;5620;53.570;9.718;2023-04-03T14:45:07;36.50;1.00
11132;DHT22;5620;53.570;9.718;2023-04-03T14:47:50;36.70;1.00
11132;DHT22;5620;53.570;9.718;2023-04-03T14:50:23;37.10;1.00
11132;DHT22;5620;53.570;9.718;2023-04-03T14:52:57;37.40;1.00
11132;DHT22;5620;53.570;9.718;2023-04-03T14:55:26;37.80;1.00
11132;DHT22;5620;53.570;9.718;2023-04-03T14:57:53;38.30;1.00
11132;DHT22;5620;53.570;9.718;2023-04-03T15:00:22;38.80;1.00
11132;DHT22;5620;53.570;9.718;2023-04-03T15:02:53;39.10;1.00
11132;DHT22;5620;53.570;9.718;2023-04-03T15:05:19;39.60;1.00
11132;DHT22;5620;53.570;9.718;2023-04-03T15:07:55;39.70;1.00
11132;DHT22;5620;53.570;9.718;2023-04-03T15:10:29;35.80;1.00
11132;DHT22;5620;53.570;9.718;2023-04-03T15:12:57;31.10;1.00
11132;DHT22;5620;53.570;9.718;2023-04-03T15:15:30;27.20;1.00
11132;DHT22;5620;53.570;9.718;2023-04-03T15:18:00;24.10;1.00
11132;DHT22;5620;53.570;9.718;2023-04-03T15:20:27;22.10;1.00
11132;DHT22;5620;53.570;9.718;2023-04-03T15:22:54;23.40;1.00
11132;DHT22;5620;53.570;9.718;2023-04-03T15:25:21;26.80;1.00
11132;DHT22;5620;53.570;9.718;2023-04-03T15:27:47;29.60;1.00
11132;DHT22;5620;53.570;9.718;2023-04-03T15:30:19;31.50;1.00
11132;DHT22;5620;53.570;9.718;2023-04-03T15:32:46;33.00;1.00
11132;DHT22;5620;53.570;9.718;2023-04-03T15:35:14;34.20;1.00
11132;DHT22;5620;53.570;9.718;2023-04-03T15:37:41;35.30;1.00
11132;DHT22;5620;53.570;9.718;2023-04-03T15:40:12;36.20;1.00
11132;DHT22;5620;53.570;9.718;2023-04-03T15:42:38;35.20;1.00
11132;DHT22;5620;53.570;9.718;2023-04-03T15:45:06;31.20;1.00
11132;DHT22;5620;53.570;9.718;2023-04-03T15:47:33;27.40;1.00
11132;DHT22;5620;53.570;9.718;2023-04-03T15:50:02;24.60;1.00
11132;DHT22;5620;53.570;9.718;2023-04-03T15:52:29;22.90;1.00
11132;DHT22;5620;53.570;9.718;2023-04-03T15:54:57;22.50;8.20
11132;DHT22;5620;53.570;9.718;2023-04-03T15:57:23;25.20;1.00
11132;DHT22;5620;53.570;9.718;2023-04-03T15:59:51;27.90;1.00
11132;DHT22;5620;53.570;9.718;2023-04-03T16:02:17;29.90;1.00
11132;DHT22;5620;53.570;9.718;2023-04-03T16:04:45;31.00;1.00
11132;DHT22;5620;53.570;9.718;2023-04-03T16:07:11;29.10;1.00
11132;DHT22;5620;53.570;9.718;2023-04-03T16:09:40;25.70;1.00
11132;DHT22;5620;53.570;9.718;2023-04-03T16:12:08;22.40;12.50
11132;DHT22;5620;53.570;9.718;2023-04-03T16:14:33;20.10;35.30
11132;DHT22;5620;53.570;9.718;2023-04-03T16:17:00;18.40;55.00
11132;DHT22;5620;53.570;9.718;2023-04-03T16:19:29;17.00;66.20
11132;DHT22;5620;53.570;9.718;2023-04-03T16:21:57;17.20;67.30
11132;DHT22;5620;53.570;9.718;2023-04-03T16:24:24;18.10;63.50
11132;DHT22;5620;53.570;9.718;2023-04-03T16:26:51;17.60;67.30
11132;DHT22;5620;53.570;9.718;2023-04-03T16:29:19;16.60;73.10
11132;DHT22;5620;53.570;9.718;2023-04-03T16:31:45;15.80;78.60
11132;DHT22;5620;53.570;9.718;2023-04-03T16:34:12;14.90;83.10
11132;DHT22;5620;53.570;9.718;2023-04-03T16:36:39;14.20;87.80
11132;DHT22;5620;53.570;9.718;2023-04-03T16:39:07;13.50;91.00
11132;DHT22;5620;53.570;9.718;2023-04-03T16:41:35;12.90;92.10
11132;DHT22;5620;53.570;9.718;2023-04-03T16:44:02;12.50;93.10
11132;DHT22;5620;53.570;9.718;2023-04-03T16:46:28;12.20;93.70
11132;DHT22;5620;53.570;9.718;2023-04-03T16:48:55;11.90;94.40
11132;DHT22;5620;53.570;9.718;2023-04-03T16:51:20;11.60;95.00
11132;DHT22;5620;53.570;9.718;2023-04-03T16:53:50;11.50;95.20
11132;DHT22;5620;53.570;9.718;2023-04-03T16:56:15;11.30;95.60
11132;DHT22;5620;53.570;9.718;2023-04-03T16:58:42;11.20;95.70
11132;DHT22;5620;53.570;9.718;2023-04-03T17:01:12;11.30;95.80
11132;DHT22;5620;53.570;9.718;2023-04-03T17:03:39;11.30;95.40
11132;DHT22;5620;53.570;9.718;2023-04-03T17:06:09;11.30;91.70
11132;DHT22;5620;53.570;9.718;2023-04-03T17:08:41;11.20;95.70
11132;DHT22;5620;53.570;9.718;2023-04-03T17:11:29;11.00;96.00
11132;DHT22;5620;53.570;9.718;2023-04-03T17:13:58;10.70;96.40
11132;DHT22;5620;53.570;9.718;2023-04-03T17:16:25;10.50;96.80
11132;DHT22;5620;53.570;9.718;2023-04-03T17:18:53;10.30;97.00
11132;DHT22;5620;53.570;9.718;2023-04-03T17:21:20;10.00;97.70
11132;DHT22;5620;53.570;9.718;2023-04-03T17:23:50;9.70;98.60
11132;DHT22;5620;53.570;9.718;2023-04-03T17:26:18;9.50;99.00
11132;DHT22;5620;53.570;9.718;2023-04-03T17:28:49;9.30;99.40
11132;DHT22;5620;53.570;9.718;2023-04-03T17:31:16;9.00;99.70
11132;DHT22;5620;53.570;9.718;2023-04-03T17:33:44;8.90;99.90
11132;DHT22;5620;53.570;9.718;2023-04-03T17:36:10;8.70;99.90
11132;DHT22;5620;53.570;9.718;2023-04-03T17:38:37;8.50;99.90
11132;DHT22;5620;53.570;9.718;2023-04-03T17:41:06;8.20;99.90
11132;DHT22;5620;53.570;9.718;2023-04-03T17:43:33;8.00;99.90
11132;DHT22;5620;53.570;9.718;2023-04-03T17:46:01;7.80;99.90
11132;DHT22;5620;53.570;9.718;2023-04-03T17:48:34;7.60;99.90
11132;DHT22;5620;53.570;9.718;2023-04-03T17:51:07;7.40;99.90
11132;DHT22;5620;53.570;9.718;2023-04-03T17:53:35;7.30;99.90
11132;DHT22;5620;53.570;9.718;2023-04-03T17:56:20;7.10;99.90
11132;DHT22;5620;53.570;9.718;2023-04-03T17:58:50;7.00;99.90
11132;DHT22;5620;53.570;9.718;2023-04-03T18:01:19;6.90;99.90
11132;DHT22;5620;53.570;9.718;2023-04-03T18:03:47;6.70;99.90
11132;DHT22;5620;53.570;9.718;2023-04-03T18:06:16;6.60;99.90
11132;DHT22;5620;53.570;9.718;2023-04-03T18:08:50;6.40;99.90
11132;DHT22;5620;53.570;9.718;2023-04-03T18:11:26;6.40;99.90
11132;DHT22;5620;53.570;9.718;2023-04-03T18:13:56;6.20;99.90
11132;DHT22;5620;53.570;9.718;2023-04-03T18:16:27;6.10;99.90
11132;DHT22;5620;53.570;9.718;2023-04-03T18:18:55;6.00;99.90
11132;DHT22;5620;53.570;9.718;2023-04-03T18:21:25;5.90;99.90
11132;DHT22;5620;53.570;9.718;2023-04-03T18:23:53;5.80;99.90
11132;DHT22;5620;53.570;9.718;2023-04-03T18:26:24;5.80;99.90
11132;DHT22;5620;53.570;9.718;2023-04-03T18:28:55;5.60;99.90
11132;DHT22;5620;53.570;9.718;2023-04-03T18:31:22;5.60;99.90
11132;DHT22;5620;53.570;9.718;2023-04-03T18:33:49;5.50;99.90
11132;DHT22;5620;53.570;9.718;2023-04-03T18:36:15;5.50;99.90
11132;DHT22;5620;53.570;9.718;2023-04-03T18:38:44;5.40;99.90
11132;DHT22;5620;53.570;9.718;2023-04-03T18:41:12;5.30;99.90